tititudorancea.com
Station Historical Data
Daily Summary for February 6, 2018 Units:  Metric    English   Both
« Previous Day
Next Day »
Daily Weekly Monthly Yearly Custom
  High: Low: Average:
Temperature: -17.8 °C 13.3 °C 23.7 °C
Dew Point: -17.8 °C 5.3 °C 8.7 °C
Humidity: Humidity % 18 % 44 %
Wind Speed: 0 km/h 0 km/h 7.2 km/h
Wind Gust: 0 km/h - -
Wind:- - SSW
Pressure: 0 hPa 1010.7 hPa -
Precipitation: 0 mm    
Historical Graphs
 
 
Ararat weather Find more about Weather in Ararat, AU


 



 


Tabular Data for February 6, 2018
Time Temperature Dew Point Pressure Wind Wind Speed Wind Gust Humidity Rainfall Rate (Hourly)
-17.8 °C -17.8 °C 0 hPa Calm     Humidity % 0 mm
00:00 19.8 °C 6.9 °C 1015.1 hPa South 8.5 km/h 11.1 km/h 43 % 0 mm
00:05 19.7 °C 7.1 °C 1015.1 hPa South 7.4 km/h 9.3 km/h 44 % 0 mm
00:10 19.6 °C 7.3 °C 1015.1 hPa SSW 9.3 km/h 13 km/h 45 % 0 mm
00:15 19.4 °C 7.2 °C 1015.1 hPa South 7.4 km/h 11.1 km/h 45 % 0 mm
00:20 19.3 °C 7.4 °C 1015.1 hPa South 7.7 km/h 13 km/h 46 % 0 mm
00:25 19.2 °C 7.6 °C 1015.1 hPa South 5.1 km/h 7.4 km/h 47 % 0 mm
00:30 19.1 °C 7.8 °C 1015.1 hPa South 6.4 km/h 9.3 km/h 48 % 0 mm
00:35 18.9 °C 7.7 °C 1015.1 hPa South 6.4 km/h 11.1 km/h 48 % 0 mm
00:40 18.8 °C 7.6 °C 1015.1 hPa South 6 km/h 9.3 km/h 48 % 0 mm
00:45 18.7 °C 7.1 °C 1014.8 hPa South 6.3 km/h 9.3 km/h 47 % 0 mm
00:50 18.4 °C 6.9 °C 1014.8 hPa South 8.4 km/h 16.7 km/h 47 % 0 mm
00:55 18.2 °C 6.7 °C 1014.8 hPa South 6 km/h 8 km/h 47 % 0 mm
01:00 18.1 °C 6.6 °C 1014.8 hPa South 6.9 km/h 11.1 km/h 47 % 0 mm
01:05 17.9 °C 6.8 °C 1014.8 hPa South 10.6 km/h 16.7 km/h 48 % 0 mm
01:10 17.9 °C 6.7 °C 1014.8 hPa South 8.5 km/h 13 km/h 48 % 0 mm
01:15 17.8 °C 6.6 °C 1014.4 hPa SSW 8.2 km/h 13 km/h 48 % 0 mm
01:20 17.8 °C 6.3 °C 1014.4 hPa South 4.3 km/h 7.4 km/h 47 % 0 mm
01:25 17.8 °C 6.3 °C 1014.4 hPa SSW 1.4 km/h 5.6 km/h 47 % 0 mm
01:30 17.7 °C 6.2 °C 1014.4 hPa SSW 3.9 km/h 5.6 km/h 47 % 0 mm
01:35 17.6 °C 6.2 °C 1014.4 hPa North 2.6 km/h 5.6 km/h 47 % 0 mm
01:40 17.6 °C 6.2 °C 1014.4 hPa SSW 2.7 km/h 3.2 km/h 47 % 0 mm
01:45 17.6 °C 5.8 °C 1014.4 hPa SSW 5 km/h 5.6 km/h 46 % 0 mm
01:50 17.6 °C 5.8 °C 1014.4 hPa SSW 6.8 km/h 11.1 km/h 46 % 0 mm
01:55 17.7 °C 5.6 °C 1014.4 hPa SSW 6.4 km/h 9.7 km/h 45 % 0 mm
02:00 17.7 °C 5.6 °C 1014.4 hPa South 7.1 km/h 9.3 km/h 45 % 0 mm
02:05 17.7 °C 5.3 °C 1014.4 hPa SSW 6.4 km/h 7.4 km/h 44 % 0 mm
02:10 17.7 °C 5.6 °C 1014.4 hPa SSW 3.7 km/h 6.4 km/h 45 % 0 mm
02:15 17.6 °C 5.5 °C 1014.4 hPa South 5.8 km/h 7.4 km/h 45 % 0 mm
02:20 17.4 °C 5.7 °C 1014.4 hPa North 6.1 km/h 6.4 km/h 46 % 0 mm
02:25 17.3 °C 6.2 °C 1014.4 hPa North 4.7 km/h 6.4 km/h 48 % 0 mm
02:30 17 °C 6.5 °C 1014.4 hPa SSW 6.1 km/h 11.1 km/h 50 % 0 mm
02:35 16.7 °C 6.8 °C 1014.4 hPa South 5.3 km/h 7.4 km/h 52 % 0 mm
02:40 16.5 °C 6.9 °C 1014.4 hPa SSW 6.6 km/h 7.4 km/h 53 % 0 mm
02:45 16.3 °C 6.9 °C 1014.4 hPa South 3.7 km/h 6.4 km/h 54 % 0 mm
02:50 16.2 °C 6.8 °C 1014.4 hPa South 4.3 km/h 5.6 km/h 54 % 0 mm
02:55 16.1 °C 7.1 °C 1014.1 hPa SSW 4 km/h 5.6 km/h 55 % 0 mm
03:00 16 °C 7.2 °C 1014.1 hPa South 3.1 km/h 5.6 km/h 56 % 0 mm
03:05 15.9 °C 7.2 °C 1014.1 hPa South 2.7 km/h 5.6 km/h 56 % 0 mm
03:10 15.8 °C 7.3 °C 1014.1 hPa Calm     57 % 0 mm
03:15 15.7 °C 7.2 °C 1014.1 hPa Calm   1.6 km/h 57 % 0 mm
03:20 15.7 °C 7.4 °C 1014.1 hPa SSW 1.1 km/h 3.7 km/h 58 % 0 mm
03:25 15.5 °C 7.5 °C 1014.1 hPa SSW 3.2 km/h 5.6 km/h 59 % 0 mm
03:30 15.4 °C 7.7 °C 1014.1 hPa SSW 1.1 km/h 3.7 km/h 60 % 0 mm
03:35 15.3 °C 7.8 °C 1014.1 hPa SSW 2.7 km/h 3.7 km/h 61 % 0 mm
03:40 15.2 °C 7.7 °C 1014.1 hPa SSW 5 km/h 5.6 km/h 61 % 0 mm
03:45 15.3 °C 7.8 °C 1014.1 hPa SSW 4.5 km/h 5.6 km/h 61 % 0 mm
03:50 15.3 °C 7.8 °C 1013.8 hPa South 2.4 km/h 5.6 km/h 61 % 0 mm
03:55 15.4 °C 7.7 °C 1014.1 hPa North 3.2 km/h 5.6 km/h 60 % 0 mm
04:00 15.3 °C 7.6 °C 1013.8 hPa SSW 0.2 km/h 1.9 km/h 60 % 0 mm
04:05 15.2 °C 7.5 °C 1014.1 hPa Calm     60 % 0 mm
04:10 15.1 °C 7.7 °C 1014.1 hPa Calm     61 % 0 mm
04:15 14.9 °C 7.5 °C 1013.8 hPa Calm     61 % 0 mm
04:20 14.9 °C 7.7 °C 1013.8 hPa SSW 3.5 km/h 5.6 km/h 62 % 0 mm
04:25 14.8 °C 7.8 °C 1013.8 hPa South 2.1 km/h 3.7 km/h 63 % 0 mm
04:30 14.9 °C 7.9 °C 1013.8 hPa SSW 2.4 km/h 5.6 km/h 63 % 0 mm
04:35 14.9 °C 8.1 °C 1013.8 hPa South 3.5 km/h 5.6 km/h 64 % 0 mm
04:40 14.9 °C 8.1 °C 1013.8 hPa South 1.9 km/h 3.7 km/h 64 % 0 mm
04:45 14.8 °C 8.1 °C 1013.8 hPa Calm   3.7 km/h 64 % 0 mm
04:50 14.7 °C 8.2 °C 1013.8 hPa SSW 1.6 km/h 3.7 km/h 65 % 0 mm
04:55 14.6 °C 8.1 °C 1013.8 hPa South 2.3 km/h 3.7 km/h 65 % 0 mm
05:00 14.4 °C 8.1 °C 1013.8 hPa SSW 1.6 km/h 3.7 km/h 66 % 0 mm
05:05 14.2 °C 7.9 °C 1013.8 hPa South 1.9 km/h 3.7 km/h 66 % 0 mm
05:10 13.9 °C 8.1 °C 1013.8 hPa North 4.3 km/h 5.6 km/h 68 % 0 mm
05:15 13.8 °C 8.2 °C 1013.8 hPa SSW 3.1 km/h 5.6 km/h 69 % 0 mm
05:20 13.7 °C 8.3 °C 1013.8 hPa SSW 2.6 km/h 5.6 km/h 70 % 0 mm
05:25 13.7 °C 8.9 °C 1014.1 hPa SSW 4.2 km/h 6.4 km/h 73 % 0 mm
05:30 13.7 °C 9.2 °C 1014.1 hPa South 6 km/h 9.3 km/h 74 % 0 mm
05:35 13.9 °C 9.9 °C 1014.1 hPa SSW 6.1 km/h 9.3 km/h 77 % 0 mm
05:40 13.9 °C 10.3 °C 1014.1 hPa SSW 10.5 km/h 13 km/h 79 % 0 mm
05:45 13.9 °C 10.6 °C 1014.1 hPa North 7.4 km/h 13 km/h 80 % 0 mm
05:50 13.9 °C 10.7 °C 1014.1 hPa SSW 9.3 km/h 14.8 km/h 81 % 0 mm
05:55 13.9 °C 10.7 °C 1014.1 hPa SSW 6.9 km/h 11.3 km/h 81 % 0 mm
06:00 13.9 °C 10.7 °C 1014.1 hPa SSW 3.9 km/h 7.4 km/h 81 % 0 mm
06:05 13.8 °C 10.6 °C 1014.1 hPa SSW 1.3 km/h 1.9 km/h 81 % 0 mm
06:10 13.8 °C 10.8 °C 1014.1 hPa North 4 km/h 5.6 km/h 82 % 0 mm
06:15 13.7 °C 10.7 °C 1014.1 hPa North 3.7 km/h 5.6 km/h 82 % 0 mm
06:20 13.7 °C 11 °C 1014.1 hPa South 3.7 km/h 5.6 km/h 84 % 0 mm
06:25 13.6 °C 10.9 °C 1014.1 hPa SSW 3.4 km/h 5.6 km/h 84 % 0 mm
06:30 13.5 °C 10.8 °C 1014.1 hPa North 3.9 km/h 5.6 km/h 84 % 0 mm
06:35 13.5 °C 10.8 °C 1014.4 hPa SSW 5 km/h 5.6 km/h 84 % 0 mm
06:40 13.4 °C 10.6 °C 1014.4 hPa North 0.8 km/h 3.7 km/h 83 % 0 mm
06:45 13.4 °C 10.6 °C 1014.4 hPa SSW 1.8 km/h 3.7 km/h 83 % 0 mm
06:50 13.3 °C 10.4 °C 1014.4 hPa SSW 4.2 km/h 5.6 km/h 83 % 0 mm
06:55 13.3 °C 10.4 °C 1014.4 hPa SSW 3.4 km/h 5.6 km/h 83 % 0 mm
07:00 13.3 °C 10.5 °C 1014.4 hPa North 4 km/h 5.6 km/h 83 % 0 mm
07:05 13.4 °C 10.6 °C 1014.4 hPa North 2.3 km/h 5.6 km/h 83 % 0 mm
07:10 13.4 °C 10.6 °C 1014.4 hPa North 2.1 km/h 5.6 km/h 83 % 0 mm
07:15 13.5 °C 10.7 °C 1014.8 hPa North 1.6 km/h 3.7 km/h 83 % 0 mm
07:20 13.6 °C 10.8 °C 1014.8 hPa South 3.5 km/h 5.6 km/h 83 % 0 mm
07:25 13.7 °C 10.9 °C 1014.8 hPa North 3.1 km/h 3.7 km/h 83 % 0 mm
07:30 13.8 °C 11 °C 1014.8 hPa SSW 3.7 km/h 5.6 km/h 83 % 0 mm
07:35 14.1 °C 11.1 °C 1014.8 hPa North 3.1 km/h 3.7 km/h 82 % 0 mm
07:40 14.3 °C 11.2 °C 1014.8 hPa SSW 3.2 km/h 5.6 km/h 82 % 0 mm
07:45 14.4 °C 11.2 °C 1014.8 hPa North 3.7 km/h 5.6 km/h 81 % 0 mm
07:50 14.7 °C 11.4 °C 1014.8 hPa North 4.8 km/h 5.6 km/h 81 % 0 mm
07:55 14.9 °C 11.4 °C 1014.8 hPa SSW 4.2 km/h 5.6 km/h 80 % 0 mm
08:00 15.2 °C 11.6 °C 1014.8 hPa SSW 5.8 km/h 9.3 km/h 79 % 0 mm
08:05 15.4 °C 11.4 °C 1014.8 hPa SSW 2.3 km/h 5.6 km/h 77 % 0 mm
08:10 15.7 °C 11.5 °C 1014.8 hPa SSW 6.1 km/h 9.3 km/h 76 % 0 mm
08:15 15.9 °C 11.8 °C 1014.8 hPa SSW 5.3 km/h 5.6 km/h 77 % 0 mm
08:20 16.1 °C 11.8 °C 1014.8 hPa SSW 2.3 km/h 5.6 km/h 76 % 0 mm
08:25 16.4 °C 11.9 °C 1014.8 hPa SSW 2.9 km/h 3.7 km/h 75 % 0 mm
08:30 16.8 °C 12.2 °C 1014.8 hPa SSW 3.4 km/h 5.6 km/h 74 % 0 mm
08:36 17.3 °C 12.2 °C 1014.8 hPa SSW 3.2 km/h 8 km/h 72 % 0 mm
08:41 17.6 °C 12 °C 1014.8 hPa SSW 3.9 km/h 5.6 km/h 70 % 0 mm
08:46 17.7 °C 11.9 °C 1015.1 hPa SSW 5.6 km/h 5.6 km/h 69 % 0 mm
08:51 17.9 °C 12.1 °C 1014.8 hPa SSW 5.8 km/h 5.8 km/h 69 % 0 mm
08:56 18.1 °C 11.8 °C 1015.1 hPa SSW 8.5 km/h 11.1 km/h 67 % 0 mm
08:59 18.1 °C 12.1 °C 1014.8 hPa SSW 4.7 km/h 5.6 km/h 68 % 0 mm
09:04 18.2 °C 11.9 °C 1015.1 hPa South 10 km/h 11.1 km/h 67 % 0 mm
09:09 18.3 °C 12.3 °C 1015.1 hPa SSW 6.3 km/h 11.1 km/h 68 % 0 mm
09:14 18.6 °C 12.3 °C 1015.1 hPa SSW 3.5 km/h 9.3 km/h 67 % 0 mm
09:19 19 °C 12.3 °C 1015.1 hPa North 6.6 km/h 14.8 km/h 65 % 0 mm
09:24 19.2 °C 12.4 °C 1015.1 hPa South 8.4 km/h 13 km/h 65 % 0 mm
09:29 19.4 °C 12.9 °C 1015.1 hPa SSW 3.4 km/h 7.4 km/h 66 % 0 mm
09:34 19.8 °C 12.8 °C 1014.8 hPa SSW 9.5 km/h 11.3 km/h 64 % 0 mm
09:39 19.8 °C 12.6 °C 1014.8 hPa South 11.6 km/h 16.7 km/h 63 % 0 mm
09:44 20 °C 13 °C 1014.8 hPa SSW 12.7 km/h 16.7 km/h 64 % 0 mm
09:49 20.3 °C 13.2 °C 1014.8 hPa North 9.8 km/h 14.8 km/h 64 % 0 mm
09:54 20.4 °C 13.2 °C 1014.8 hPa South 7.4 km/h 13 km/h 63 % 0 mm
09:59 20.9 °C 13.3 °C 1014.8 hPa SSW 12.9 km/h 18.5 km/h 62 % 0 mm
10:04 21.2 °C 13.3 °C 1014.8 hPa North 4.8 km/h 11.1 km/h 61 % 0 mm
10:09 21.6 °C 13.5 °C 1014.8 hPa SSW 9.2 km/h 11.3 km/h 60 % 0 mm
10:14 22.1 °C 13.4 °C 1014.8 hPa SSW 9.3 km/h 18.5 km/h 58 % 0 mm
10:19 22.5 °C 13.6 °C 1014.8 hPa South 10 km/h 13 km/h 57 % 0 mm
10:24 22.9 °C 13.7 °C 1014.8 hPa SSW 8.9 km/h 12.9 km/h 56 % 0 mm
10:29 23.6 °C 13.4 °C 1014.4 hPa SSW 9.3 km/h 13 km/h 53 % 0 mm
10:34 23.9 °C 12.8 °C 1014.4 hPa SSW 10.5 km/h 13 km/h 50 % 0 mm
10:39 24.3 °C 11.6 °C 1014.4 hPa SSW 8 km/h 13 km/h 45 % 0 mm
10:44 24.7 °C 11.9 °C 1014.4 hPa North 8.7 km/h 14.5 km/h 45 % 0 mm
10:49 24.9 °C 11.1 °C 1014.4 hPa SSW 12.6 km/h 18.5 km/h 42 % 0 mm
10:54 25.3 °C 11.4 °C 1014.4 hPa South 7.2 km/h 16.1 km/h 42 % 0 mm
10:59 25.5 °C 10.5 °C 1014.4 hPa North 8.5 km/h 12.9 km/h 39 % 0 mm
11:04 26 °C 10.6 °C 1014.4 hPa SSW 9.3 km/h 13 km/h 38 % 0 mm
11:09 26.4 °C 10.2 °C 1014.4 hPa North 15 km/h 18.5 km/h 36 % 0 mm
11:14 26.6 °C 9.9 °C 1014.4 hPa SSW 7.2 km/h 11.1 km/h 35 % 0 mm
11:19 26.9 °C 9.7 °C 1014.4 hPa North 8 km/h 13 km/h 34 % 0 mm
11:24 27.3 °C 9.2 °C 1014.4 hPa SSW 10.6 km/h 16.7 km/h 32 % 0 mm
11:29 27.6 °C 9.4 °C 1014.1 hPa SSW 10 km/h 14.8 km/h 32 % 0 mm
11:34 27.9 °C 8.8 °C 1014.4 hPa SSW 6 km/h 11.3 km/h 30 % 0 mm
11:39 28.2 °C 8.4 °C 1014.1 hPa SSW 10.6 km/h 14.8 km/h 29 % 0 mm
11:44 28.4 °C 8.6 °C 1014.1 hPa SSW 5.1 km/h 7.4 km/h 29 % 0 mm
11:49 28.9 °C 9.1 °C 1014.1 hPa South 4.5 km/h 7.4 km/h 29 % 0 mm
11:54 29.2 °C 9.8 °C 1014.1 hPa South 8 km/h 11.3 km/h 30 % 0 mm
11:59 29.7 °C 9.2 °C 1014.1 hPa South 2.6 km/h 5.6 km/h 28 % 0 mm
12:04 29.6 °C 8.6 °C 1014.1 hPa South 11.6 km/h 16.7 km/h 27 % 0 mm
12:09 29.7 °C 7.6 °C 1014.1 hPa South 7.7 km/h 11.1 km/h 25 % 0 mm
12:14 29.8 °C 8.2 °C 1014.1 hPa South 10.5 km/h 16.7 km/h 26 % 0 mm
12:19 29.8 °C 7.1 °C 1013.8 hPa South 6.4 km/h 9.3 km/h 24 % 0 mm
12:24 30.2 °C 7.4 °C 1013.8 hPa South 9.3 km/h 13 km/h 24 % 0 mm
12:29 30.7 °C 7.8 °C 1013.8 hPa South 1.4 km/h 3.7 km/h 24 % 0 mm
12:34 31.3 °C 7.7 °C 1013.8 hPa South 5.6 km/h 7.4 km/h 23 % 0 mm
12:39 31.4 °C 8.4 °C 1013.8 hPa SSE 8.4 km/h 14.8 km/h 24 % 0 mm
12:44 31.9 °C 7.6 °C 1013.8 hPa SSE 5.1 km/h 9.7 km/h 22 % 0 mm
12:49 32.4 °C 7.3 °C 1013.8 hPa SSE 5.6 km/h 11.1 km/h 21 % 0 mm
12:54 32.1 °C 7 °C 1013.4 hPa South 10 km/h 14.8 km/h 21 % 0 mm
12:59 31.3 °C 7.1 °C 1013.4 hPa SSW 4.8 km/h 7.4 km/h 22 % 0 mm
13:04 31.2 °C 6.9 °C 1013.4 hPa Calm   3.7 km/h 22 % 0 mm
13:09 31.3 °C 7.1 °C 1013.4 hPa SSW 8.5 km/h 13 km/h 22 % 0 mm
13:14 31.7 °C 6.7 °C 1013.1 hPa SSW 1.8 km/h 5.6 km/h 21 % 0 mm
13:19 31.8 °C 6.8 °C 1013.1 hPa SSW 5.6 km/h 8 km/h 21 % 0 mm
13:24 31.7 °C 6.7 °C 1013.1 hPa WNW 2.3 km/h 9.3 km/h 21 % 0 mm
13:29 31.8 °C 6.8 °C 1013.1 hPa WNW 1.8 km/h 5.6 km/h 21 % 0 mm
13:34 32.2 °C 7.1 °C 1013.1 hPa WNW 7.9 km/h 11.1 km/h 21 % 0 mm
13:39 32.4 °C 7.3 °C 1013.1 hPa NW 8.4 km/h 11.3 km/h 21 % 0 mm
13:44 32.4 °C 6.6 °C 1013.1 hPa SW 6.4 km/h 13 km/h 20 % 0 mm
13:49 32.3 °C 7.2 °C 1013.1 hPa WSW 6.1 km/h 9.3 km/h 21 % 0 mm
13:54 32.8 °C 6.9 °C 1013.1 hPa WSW 4.5 km/h 5.6 km/h 20 % 0 mm
13:59 33 °C 7.8 °C 1012.8 hPa SSW 9 km/h 14.8 km/h 21 % 0 mm
14:04 32.9 °C 6.9 °C 1012.8 hPa South 6.8 km/h 11.1 km/h 20 % 0 mm
14:09 32.6 °C 7.4 °C 1012.8 hPa SSW 13.2 km/h 19.3 km/h 21 % 0 mm
14:14 32.2 °C 7.1 °C 1012.8 hPa SSE 14.6 km/h 22.2 km/h 21 % 0 mm
14:19 32.1 °C 7.1 °C 1012.8 hPa SSE 6.1 km/h 11.1 km/h 21 % 0 mm
14:24 32.3 °C 7.2 °C 1012.8 hPa SSE 3.1 km/h 7.4 km/h 21 % 0 mm
14:29 32.8 °C 6.9 °C 1012.4 hPa SSE 1.4 km/h 5.6 km/h 20 % 0 mm
14:34 33.1 °C 7.2 °C 1012.4 hPa South 3.9 km/h 8 km/h 20 % 0 mm
14:39 33.1 °C 7.2 °C 1012.4 hPa South 2.3 km/h 5.6 km/h 20 % 0 mm
14:44 33.2 °C 7.2 °C 1012.4 hPa South 1 km/h 8 km/h 20 % 0 mm
14:49 33.3 °C 7.3 °C 1012.1 hPa SSE 7.4 km/h 12.9 km/h 20 % 0 mm
14:54 33.3 °C 7.3 °C 1012.1 hPa South 13.2 km/h 20.4 km/h 20 % 0 mm
14:59 33.3 °C 7.3 °C 1012.1 hPa SW 11.3 km/h 16.7 km/h 20 % 0 mm
15:04 33.1 °C 7.2 °C 1012.1 hPa North 5.8 km/h 11.1 km/h 20 % 0 mm
15:09 33.2 °C 7.9 °C 1011.7 hPa SSE 11.4 km/h 27.8 km/h 21 % 0 mm
15:14 33.3 °C 7.3 °C 1011.7 hPa SSE 1.3 km/h 5.6 km/h 20 % 0 mm
15:19 33.9 °C 7 °C 1011.7 hPa SE 11.1 km/h 16.7 km/h 19 % 0 mm
15:24 34 °C 7.1 °C 1011.4 hPa ESE 8.5 km/h 13 km/h 19 % 0 mm
15:29 34.2 °C 7.3 °C 1011.4 hPa ESE 1.6 km/h 3.7 km/h 19 % 0 mm
15:34 34.1 °C 7.2 °C 1011.4 hPa ESE 7.1 km/h 11.1 km/h 19 % 0 mm
15:39 34.2 °C 7.3 °C 1011.4 hPa ESE 12.6 km/h 18.5 km/h 19 % 0 mm
15:44 34.5 °C 7.5 °C 1011.4 hPa ESE 3.4 km/h 7.4 km/h 19 % 0 mm
15:49 34.8 °C 6.9 °C 1011.4 hPa ESE 9 km/h 13 km/h 18 % 0 mm
15:54 34.4 °C 7.5 °C 1011.1 hPa SSW 17.4 km/h 22.2 km/h 19 % 0 mm
15:59 34 °C 7.1 °C 1011.1 hPa South 3.1 km/h 9.7 km/h 19 % 0 mm
16:04 34.2 °C 7.3 °C 1011.1 hPa SSE 3.9 km/h 9.3 km/h 19 % 0 mm
16:09 34.6 °C 7.6 °C 1011.1 hPa North 10.9 km/h 16.7 km/h 19 % 0 mm
16:14 34.6 °C 6.8 °C 1011.1 hPa SSW 13.5 km/h 18.5 km/h 18 % 0 mm
16:19 34.4 °C 7.4 °C 1011.1 hPa East 10 km/h 14.8 km/h 19 % 0 mm
16:24 34.3 °C 7.4 °C 1011.1 hPa ESE 7.9 km/h 13 km/h 19 % 0 mm
16:29 34.3 °C 7.3 °C 1011.1 hPa SE 10 km/h 13 km/h 19 % 0 mm
16:34 34.3 °C 7.3 °C 1011.1 hPa SE 9 km/h 13 km/h 19 % 0 mm
16:39 34.1 °C 7.2 °C 1010.7 hPa ESE 6.4 km/h 9.3 km/h 19 % 0 mm
16:44 33.8 °C 7 °C 1011.1 hPa SSE 6.1 km/h 14.8 km/h 19 % 0 mm
16:49 33.7 °C 6.8 °C 1010.7 hPa South 5 km/h 9.3 km/h 19 % 0 mm
16:54 34 °C 7.1 °C 1010.7 hPa SSW 10.9 km/h 18.5 km/h 19 % 0 mm
16:59 34.1 °C 7.9 °C 1010.7 hPa SSW 7.7 km/h 11.1 km/h 20 % 0 mm
17:04 34.3 °C 7.3 °C 1010.7 hPa South 15 km/h 18.5 km/h 19 % 0 mm
17:09 34 °C 7.1 °C 1010.7 hPa SSW 10 km/h 18.5 km/h 19 % 0 mm
17:14 33.8 °C 7.7 °C 1010.7 hPa South 12.2 km/h 16.7 km/h 20 % 0 mm
17:19 33.6 °C 7.6 °C 1010.7 hPa SSE 10.6 km/h 31.5 km/h 20 % 0 mm
17:24 33.6 °C 7.6 °C 1010.7 hPa South 10.5 km/h 16.7 km/h 20 % 0 mm
17:29 33.7 °C 6.8 °C 1010.7 hPa SW 13.5 km/h 20.4 km/h 19 % 0 mm
17:34 33.5 °C 7.4 °C 1010.7 hPa SSW 11.6 km/h 20.4 km/h 20 % 0 mm
17:39 33.7 °C 7.6 °C 1010.7 hPa SSE 14.5 km/h 17.7 km/h 20 % 0 mm
17:44 33.8 °C 7.7 °C 1010.7 hPa SE 10.9 km/h 18.5 km/h 20 % 0 mm
17:49 33.8 °C 7.7 °C 1010.7 hPa SSE 11.1 km/h 18.5 km/h 20 % 0 mm
17:54 33.8 °C 6.9 °C 1010.7 hPa SSE 11.1 km/h 16.7 km/h 19 % 0 mm
17:59 33.8 °C 7 °C 1010.7 hPa South 12.7 km/h 18.5 km/h 19 % 0 mm
18:04 33.8 °C 6.9 °C 1010.7 hPa SSE 9.8 km/h 13 km/h 19 % 0 mm
18:09 33.7 °C 7.7 °C 1010.7 hPa South 14.2 km/h 20.4 km/h 20 % 0 mm
18:14 33.6 °C 7.6 °C 1010.7 hPa South 6.6 km/h 16.7 km/h 20 % 0 mm
18:19 33.7 °C 7.7 °C 1010.7 hPa SSE 10 km/h 14.5 km/h 20 % 0 mm
18:24 33.8 °C 7.7 °C 1010.7 hPa South 12.7 km/h 22.2 km/h 20 % 0 mm
18:29 33.6 °C 7.5 °C 1010.7 hPa SSE 12.1 km/h 18.5 km/h 20 % 0 mm
18:34 33.3 °C 8.1 °C 1010.7 hPa SE 16.3 km/h 25.9 km/h 21 % 0 mm
18:39 33 °C 9.1 °C 1011.1 hPa SSE 14.5 km/h 29.6 km/h 23 % 0 mm
18:44 32.3 °C 9.8 °C 1011.1 hPa SSE 10 km/h 27.8 km/h 25 % 0 mm
18:49 32.1 °C 9.6 °C 1011.1 hPa SE 18.3 km/h 29.6 km/h 25 % 0 mm
18:54 31.5 °C 9.7 °C 1011.1 hPa SSW 23.7 km/h 32.2 km/h 26 % 0 mm
18:59 31.1 °C 9.3 °C 1011.4 hPa SSE 20.8 km/h 29.6 km/h 26 % 0 mm
19:04 31.1 °C 9.9 °C 1011.4 hPa SSE 15.4 km/h 27.8 km/h 27 % 0 mm
19:09 30.9 °C 9.8 °C 1011.4 hPa SE 18 km/h 27.4 km/h 27 % 0 mm
19:14 30.8 °C 9.7 °C 1011.4 hPa SE 21.6 km/h 35.4 km/h 27 % 0 mm
19:19 30.6 °C 9.5 °C 1011.4 hPa SSE 18.3 km/h 24.1 km/h 27 % 0 mm
19:24 30.4 °C 9.3 °C 1011.7 hPa ESE 15.3 km/h 24.1 km/h 27 % 0 mm
19:29 30.2 °C 9.2 °C 1011.7 hPa SE 19.5 km/h 31.5 km/h 27 % 0 mm
19:34 30.1 °C 9.6 °C 1011.7 hPa SSE 9.7 km/h 24.1 km/h 28 % 0 mm
19:39 30 °C 9.5 °C 1011.7 hPa SSE 16.9 km/h 16.9 km/h 28 % 0 mm
19:44 29.8 °C 9.3 °C 1011.7 hPa SE 17.9 km/h 24.1 km/h 28 % 0 mm
19:49 29.5 °C 9.6 °C 1012.1 hPa SE 17.5 km/h 29.6 km/h 29 % 0 mm
19:54 29.2 °C 9.3 °C 1012.1 hPa SSE 15.8 km/h 18.5 km/h 29 % 0 mm
19:59 29.1 °C 9.2 °C 1012.1 hPa SE 13 km/h 25.9 km/h 29 % 0 mm
20:04 28.9 °C 9.6 °C 1012.1 hPa SE 9.3 km/h 16.7 km/h 30 % 0 mm
20:09 28.7 °C 9.4 °C 1012.1 hPa SE 18 km/h 22.5 km/h 30 % 0 mm
20:15 28.4 °C 9.6 °C 1012.1 hPa SE 16.7 km/h 24.1 km/h 31 % 0 mm
20:20 28.1 °C 9.8 °C 1012.1 hPa SE 11.9 km/h 27.8 km/h 32 % 0 mm
20:25 27.7 °C 9.5 °C 1012.1 hPa SE 13.4 km/h 18.5 km/h 32 % 0 mm
20:30 27.4 °C 9.7 °C 1012.4 hPa SE 13 km/h 18.5 km/h 33 % 0 mm
20:35 27.2 °C 9.5 °C 1012.4 hPa SSE 8.2 km/h 13 km/h 33 % 0 mm
20:40 26.9 °C 9.3 °C 1012.4 hPa SSE 10 km/h 18.5 km/h 33 % 0 mm
20:45 26.7 °C 9.1 °C 1012.4 hPa SSE 9 km/h 16.7 km/h 33 % 0 mm
20:50 26.6 °C 8.9 °C 1012.4 hPa SSE 8.2 km/h 14.5 km/h 33 % 0 mm
20:55 26.4 °C 8.8 °C 1012.4 hPa SSE 5.6 km/h 14.8 km/h 33 % 0 mm
21:00 26.2 °C 8.6 °C 1012.4 hPa SE 9.2 km/h 13 km/h 33 % 0 mm
21:05 26 °C 8.5 °C 1012.4 hPa SSE 8 km/h 14.8 km/h 33 % 0 mm
21:10 25.8 °C 8.3 °C 1012.8 hPa SSE 3.9 km/h 8 km/h 33 % 0 mm
21:15 25.6 °C 8.6 °C 1012.8 hPa SSE 4.2 km/h 9.7 km/h 34 % 0 mm
21:20 25.3 °C 7.9 °C 1012.8 hPa SSE 8.5 km/h 11.3 km/h 33 % 0 mm
21:25 25.1 °C 7.7 °C 1012.8 hPa SSE 6.8 km/h 11.1 km/h 33 % 0 mm
21:30 25.1 °C 7.7 °C 1012.8 hPa SSE 7.2 km/h 11.1 km/h 33 % 0 mm
21:35 24.9 °C 7.5 °C 1012.8 hPa SSE 6.9 km/h 11.1 km/h 33 % 0 mm
21:40 24.7 °C 7.3 °C 1012.8 hPa SSE 9 km/h 13 km/h 33 % 0 mm
21:45 24.6 °C 7.7 °C 1012.8 hPa SSE 7.9 km/h 13 km/h 34 % 0 mm
21:50 24.3 °C 7.9 °C 1013.1 hPa SSE 5 km/h 7.4 km/h 35 % 0 mm
21:55 24.1 °C 7.7 °C 1013.1 hPa SSE 10.8 km/h 14.8 km/h 35 % 0 mm
22:00 24 °C 8 °C 1013.1 hPa SSE 7.1 km/h 13 km/h 36 % 0 mm
22:05 23.9 °C 7.9 °C 1013.1 hPa SSE 6.3 km/h 9.3 km/h 36 % 0 mm
22:10 23.8 °C 8.2 °C 1013.1 hPa South 11.9 km/h 14.8 km/h 37 % 0 mm
22:15 23.7 °C 8.2 °C 1013.1 hPa South 9.2 km/h 13 km/h 37 % 0 mm
22:20 23.6 °C 8.4 °C 1013.1 hPa South 5.8 km/h 7.4 km/h 38 % 0 mm
22:25 23.5 °C 8.3 °C 1013.1 hPa South 7.1 km/h 9.7 km/h 38 % 0 mm
22:30 23.4 °C 8.3 °C 1013.1 hPa South 8.4 km/h 16.7 km/h 38 % 0 mm
22:35 23.3 °C 8.6 °C 1013.1 hPa South 8.4 km/h 9.3 km/h 39 % 0 mm
22:40 23.1 °C 8.8 °C 1013.1 hPa South 2.6 km/h 6.4 km/h 40 % 0 mm
22:45 22.9 °C 8.9 °C 1013.1 hPa South 6.9 km/h 14.8 km/h 41 % 0 mm
22:50 22.7 °C 9.2 °C 1013.1 hPa South 5.6 km/h 11.1 km/h 42 % 0 mm
22:55 22.6 °C 9.4 °C 1013.1 hPa South 3.1 km/h 9.3 km/h 43 % 0 mm
23:00 22.4 °C 9.6 °C 1013.1 hPa South 5.3 km/h 11.1 km/h 44 % 0 mm
23:05 22.2 °C 9.4 °C 1013.1 hPa South 6.6 km/h 9.3 km/h 44 % 0 mm
23:10 22.1 °C 9.9 °C 1013.1 hPa South 8.7 km/h 11.1 km/h 46 % 0 mm
23:15 22 °C 10.2 °C 1013.1 hPa South 7.1 km/h 11.1 km/h 47 % 0 mm
23:20 21.9 °C 10.7 °C 1013.1 hPa South 8.4 km/h 13 km/h 49 % 0 mm
23:25 21.8 °C 10.9 °C 1013.1 hPa South 9.5 km/h 13 km/h 50 % 0 mm
23:30 21.8 °C 11.2 °C 1013.1 hPa South 7.2 km/h 9.3 km/h 51 % 0 mm
23:35 21.7 °C 11.4 °C 1013.1 hPa South 7.1 km/h 9.3 km/h 52 % 0 mm
23:40 21.7 °C 11.7 °C 1013.1 hPa South 10.1 km/h 13 km/h 53 % 0 mm
23:45 21.7 °C 11.7 °C 1013.1 hPa South 7.9 km/h 13 km/h 53 % 0 mm
23:50 21.7 °C 12 °C 1013.1 hPa South 9 km/h 13 km/h 54 % 0 mm
23:55 21.7 °C 12.2 °C 1013.1 hPa South 6.1 km/h 13 km/h 55 % 0 mm
Ararat Weather
Compliments of Weather Underground - 2 mb
Click here to send mail.


ABOUT

Live weather data from Ararat, Victoria, Australia, 3377
Data uploaded from Cumulus every 5 minutes to Weather Underground.
This site then downloads the raw data for formatting and display.
Metric and imperial data can be displayed. Graphs and historical data available.
Includes Sun and Moon times and rain image live from BOM.

Check out Ararat Weather on Facebook, Twitter and Google +

Help support ongoing costs by checking out the ads





Follow @AraratWeather